Time;durP1;ratioP1;P1;durP2;ratioP2;P2;SDS_P1;SDS_P2;PMS_P1;PMS_P2;Temp;Humidity;BMP_temperature;BMP_pressure;BME280_temperature;BME280_humidity;BME280_pressure;Samples;Min_cycle;Max_cycle;Signal;HPM_P1;HPM_P2
2021/05/14 00:00:33;;;;;;;31.75;16.95;;;;;;;11.01;96.51;100360.09;5037832;28;20589;-46
2021/05/14 00:02:58;;;;;;;32.13;15.75;;;;;;;11.08;96.19;100354.47;5036665;28;20388;-46
2021/05/14 00:05:24;;;;;;;35.03;15.77;;;;;;;11.10;96.34;100346.97;5041845;28;20075;-45
2021/05/14 00:07:49;;;;;;;31.80;16.15;;;;;;;11.03;96.18;100341.88;5035551;28;20124;-46
2021/05/14 00:10:17;;;;;;;29.90;14.68;;;;;;;11.11;95.83;100338.66;5034755;28;20518;-46
2021/05/14 00:12:43;;;;;;;27.35;14.18;;;;;;;11.11;95.78;100338.66;5034565;28;20051;-47
2021/05/14 00:15:09;;;;;;;28.50;14.30;;;;;;;11.33;95.12;100335.03;5035458;28;20033;-46
2021/05/14 00:17:35;;;;;;;26.52;14.00;;;;;;;11.23;95.38;100343.03;5035727;28;20078;-47
2021/05/14 00:20:05;;;;;;;31.13;15.85;;;;;;;11.22;95.25;100334.19;5031426;28;20049;-47
2021/05/14 00:22:30;;;;;;;25.17;13.95;;;;;;;11.31;94.76;100342.50;5032395;28;20025;-45
2021/05/14 00:24:56;;;;;;;23.25;13.48;;;;;;;11.27;94.67;100339.53;5033228;28;20033;-47
2021/05/14 00:27:21;;;;;;;28.33;15.48;;;;;;;10.98;95.76;100354.44;5034046;28;20022;-46
2021/05/14 00:29:47;;;;;;;34.38;14.73;;;;;;;11.12;95.58;100345.66;5029858;28;20033;-46
2021/05/14 00:32:12;;;;;;;29.15;14.57;;;;;;;10.97;95.85;100348.28;5029470;28;20518;-46
2021/05/14 00:34:38;;;;;;;25.20;12.75;;;;;;;11.13;95.52;100336.56;5028216;28;20037;-46
2021/05/14 00:37:04;;;;;;;26.25;13.48;;;;;;;11.05;95.86;100331.69;5027316;28;20387;-46
2021/05/14 00:39:30;;;;;;;23.23;12.98;;;;;;;11.07;95.87;100334.91;5030597;28;20130;-46
2021/05/14 00:41:55;;;;;;;24.90;12.68;;;;;;;11.08;95.76;100327.66;5032560;28;21251;-44
2021/05/14 00:44:28;;;;;;;21.80;12.07;;;;;;;11.08;95.44;100328.47;5033606;28;20147;-47
2021/05/14 00:46:55;;;;;;;23.02;11.07;;;;;;;11.19;95.19;100332.03;5033057;28;20088;-45
2021/05/14 00:49:20;;;;;;;20.30;10.52;;;;;;;11.22;94.49;100334.19;5032492;28;20022;-46
2021/05/14 00:51:46;;;;;;;18.42;10.07;;;;;;;11.24;94.44;100331.22;5027965;28;20421;-46
2021/05/14 00:54:14;;;;;;;22.35;10.07;;;;;;;11.23;94.34;100329.63;5036001;28;20467;-45
2021/05/14 00:56:40;;;;;;;24.48;10.45;;;;;;;11.29;94.02;100331.25;5031318;28;20700;-46
2021/05/14 00:59:05;;;;;;;16.00;9.73;;;;;;;11.30;93.91;100330.97;5039417;28;20025;-45
2021/05/14 01:01:31;;;;;;;18.88;10.07;;;;;;;11.27;93.89;100328.03;5037667;28;20028;-46
2021/05/14 01:03:56;;;;;;;19.52;10.05;;;;;;;11.29;93.94;100329.38;5033906;28;20509;-46
2021/05/14 01:06:22;;;;;;;16.85;10.07;;;;;;;11.14;94.56;100332.00;5035826;28;20022;-47
2021/05/14 01:08:48;;;;;;;18.25;9.82;;;;;;;11.25;94.04;100335.53;5032727;28;20486;-46
2021/05/14 01:11:13;;;;;;;18.27;9.30;;;;;;;11.12;94.29;100340.28;5027206;28;20029;-47
2021/05/14 01:13:39;;;;;;;14.82;8.70;;;;;;;11.30;93.72;100344.38;5027644;28;20490;-46
2021/05/14 01:16:04;;;;;;;16.67;9.13;;;;;;;11.22;93.92;100339.53;5037466;28;20076;-46
2021/05/14 01:18:30;;;;;;;20.10;9.38;;;;;;;11.29;93.47;100340.09;5029802;28;20475;-46
2021/05/14 01:20:55;;;;;;;19.77;9.93;;;;;;;11.27;93.76;100336.06;5029553;28;20021;-48
2021/05/14 01:23:21;;;;;;;20.73;10.18;;;;;;;11.37;93.23;100336.13;5031140;28;20049;-46
2021/05/14 01:25:49;;;;;;;19.50;9.35;;;;;;;11.29;92.98;100340.09;5031915;28;20029;-47
2021/05/14 01:28:15;;;;;;;18.00;9.98;;;;;;;11.20;93.53;100336.31;5030204;28;20406;-46
2021/05/14 01:30:41;;;;;;;19.17;10.05;;;;;;;11.29;93.29;100339.28;5034983;28;20033;-47
2021/05/14 01:33:06;;;;;;;20.60;10.13;;;;;;;11.33;93.21;100332.34;5031229;28;20057;-46
2021/05/14 01:35:32;;;;;;;20.83;10.00;;;;;;;11.50;92.42;100341.78;5036187;28;20017;-47
2021/05/14 01:37:58;;;;;;;20.27;10.90;;;;;;;11.44;92.53;100342.03;5034822;28;20104;-46
2021/05/14 01:40:24;;;;;;;20.33;10.05;;;;;;;11.47;92.16;100334.25;5036118;28;20033;-46
2021/05/14 01:42:49;;;;;;;20.38;10.60;;;;;;;11.45;92.45;100332.91;5033617;28;20029;-46
2021/05/14 01:45:16;;;;;;;18.73;9.63;;;;;;;11.59;91.37;100336.72;5036053;28;20491;-46
2021/05/14 01:47:42;;;;;;;18.27;9.80;;;;;;;11.64;91.09;100339.41;5039106;28;20029;-47
2021/05/14 01:50:08;;;;;;;22.35;11.18;;;;;;;11.69;90.72;100342.13;5037514;28;20044;-46
2021/05/14 01:52:34;;;;;;;21.20;11.13;;;;;;;11.65;90.98;100332.97;5033345;28;20478;-46
2021/05/14 01:55:01;;;;;;;20.92;11.40;;;;;;;11.56;91.63;100334.56;5034726;28;20041;-47
2021/05/14 01:57:27;;;;;;;22.25;11.60;;;;;;;11.65;90.97;100337.53;5035750;28;20049;-46
2021/05/14 01:59:53;;;;;;;27.75;13.15;;;;;;;11.60;90.88;100341.00;5034318;28;20025;-46
2021/05/14 02:02:21;;;;;;;24.88;12.18;;;;;;;11.50;91.96;100338.31;5040817;28;20497;-47
2021/05/14 02:04:47;;;;;;;27.33;12.43;;;;;;;11.44;92.30;100339.34;5033184;28;20513;-49
2021/05/14 02:07:13;;;;;;;26.30;12.43;;;;;;;11.44;92.28;100336.66;5036855;28;20025;-48
2021/05/14 02:09:38;;;;;;;29.52;13.82;;;;;;;11.04;94.07;100331.94;5032002;28;20032;-46
2021/05/14 02:12:05;;;;;;;26.65;13.63;;;;;;;11.13;94.08;100338.41;5041164;28;20439;-46
2021/05/14 02:14:30;;;;;;;27.70;14.23;;;;;;;11.07;94.62;100332.22;5034294;28;20414;-46
2021/05/14 02:16:55;;;;;;;27.00;12.25;;;;;;;11.09;94.50;100330.09;5036349;28;20013;-46
2021/05/14 02:19:21;;;;;;;26.10;14.15;;;;;;;11.25;93.75;100330.97;5029982;28;20033;-47
2021/05/14 02:21:46;;;;;;;32.08;16.25;;;;;;;11.12;94.65;100329.56;5036820;28;20053;-47
2021/05/14 02:24:12;;;;;;;40.55;18.65;;;;;;;10.89;95.41;100338.03;5032116;28;20025;-46
2021/05/14 02:26:37;;;;;;;38.50;17.63;;;;;;;10.93;95.34;100331.06;5038526;28;20022;-49
2021/05/14 02:29:04;;;;;;;39.83;16.90;;;;;;;11.05;95.32;100318.28;5044812;28;20033;-45
2021/05/14 02:31:29;;;;;;;43.45;17.92;;;;;;;10.90;95.69;100320.88;5043789;28;20483;-46
2021/05/14 02:33:55;;;;;;;40.58;18.15;;;;;;;10.86;96.15;100323.28;5042522;28;20029;-45
2021/05/14 02:36:21;;;;;;;39.97;16.80;;;;;;;11.02;95.77;100318.00;5045824;28;20390;-46
2021/05/14 02:38:47;;;;;;;39.30;16.98;;;;;;;11.00;95.32;100325.50;5037943;28;20171;-46
2021/05/14 02:41:13;;;;;;;36.65;17.17;;;;;;;11.00;95.48;100320.94;5037981;28;20505;-45
2021/05/14 02:43:41;;;;;;;38.75;17.40;;;;;;;10.86;95.96;100320.59;5034249;28;20029;-46
2021/05/14 02:46:07;;;;;;;33.85;16.42;;;;;;;11.00;95.41;100314.78;5032068;28;20108;-47
2021/05/14 02:48:32;;;;;;;38.00;18.20;;;;;;;10.87;95.64;100321.41;5035609;28;20020;-46
2021/05/14 02:50:58;;;;;;;31.50;15.55;;;;;;;11.01;95.13;100322.56;5039970;28;20445;-45
2021/05/14 02:53:24;;;;;;;42.35;16.80;;;;;;;11.05;94.88;100323.66;5039753;28;20112;-46
2021/05/14 02:55:50;;;;;;;35.13;16.48;;;;;;;11.10;94.71;100323.66;5032260;28;20473;-46
2021/05/14 02:58:15;;;;;;;31.45;15.13;;;;;;;10.91;95.11;100333.22;5040845;28;20037;-47
2021/05/14 03:00:41;;;;;;;34.50;15.48;;;;;;;10.93;95.23;100324.91;5040288;28;20592;-45
2021/05/14 03:03:06;;;;;;;35.30;15.48;;;;;;;11.05;95.00;100333.56;5038293;28;20056;-46
2021/05/14 03:05:32;;;;;;;40.58;17.33;;;;;;;11.15;94.60;100333.63;5032500;28;20109;-47
2021/05/14 03:07:57;;;;;;;45.17;17.38;;;;;;;11.07;94.97;100326.88;5037953;28;20053;-46
2021/05/14 03:10:23;;;;;;;32.45;15.32;;;;;;;11.14;94.51;100332.81;5037574;28;20116;-46
2021/05/14 03:12:48;;;;;;;37.92;15.05;;;;;;;11.14;94.52;100324.78;5035968;28;21647;-46
2021/05/14 03:15:15;;;;;;;35.72;14.80;;;;;;;11.19;94.17;100330.16;5034766;28;20355;-47
2021/05/14 03:17:40;;;;;;;38.55;16.75;;;;;;;11.09;94.42;100326.59;5036387;28;20048;-46
2021/05/14 03:20:08;;;;;;;34.33;15.23;;;;;;;11.09;94.80;100324.72;5035911;28;20025;-46
2021/05/14 03:22:33;;;;;;;39.17;15.88;;;;;;;11.09;94.79;100326.59;5037808;28;20028;-45
2021/05/14 03:24:59;;;;;;;34.25;15.60;;;;;;;11.11;94.60;100325.28;5033431;28;20301;-47
2021/05/14 03:27:25;;;;;;;33.55;14.35;;;;;;;11.10;94.72;100326.34;5041169;28;20025;-46
2021/05/14 03:29:50;;;;;;;29.88;14.25;;;;;;;10.98;94.96;100324.97;5037681;28;20487;-46
2021/05/14 03:32:16;;;;;;;30.95;14.55;;;;;;;10.94;95.29;100332.69;5036634;28;20033;-47
2021/05/14 03:34:41;;;;;;;35.97;15.32;;;;;;;10.93;95.63;100332.94;5038022;28;20052;-45
2021/05/14 03:37:07;;;;;;;39.38;14.40;;;;;;;10.99;95.24;100335.41;5030515;28;20021;-46
2021/05/14 03:39:38;;;;;;;36.47;14.63;;;;;;;10.94;95.48;100324.66;5034135;28;20505;-46
2021/05/14 03:42:12;;;;;;;37.53;15.30;;;;;;;10.99;95.74;100331.94;5037971;28;20036;-46
2021/05/14 03:44:38;;;;;;;39.37;16.03;;;;;;;10.97;95.73;100332.19;5034891;28;20025;-45
2021/05/14 03:47:04;;;;;;;41.58;16.60;;;;;;;10.99;95.85;100323.88;5036338;28;20032;-45
2021/05/14 03:49:30;;;;;;;34.88;14.52;;;;;;;10.82;96.23;100335.59;5036932;28;20021;-46
2021/05/14 03:51:56;;;;;;;39.47;16.60;;;;;;;10.82;96.35;100332.09;5030997;28;20171;-46
2021/05/14 03:54:22;;;;;;;33.85;14.63;;;;;;;10.82;96.31;100326.75;5037288;28;20132;-46
2021/05/14 03:56:48;;;;;;;34.72;14.27;;;;;;;10.79;96.57;100327.28;5034415;28;20025;-45
2021/05/14 03:59:15;;;;;;;31.50;14.35;;;;;;;10.85;96.29;100331.59;5041408;28;20056;-46
2021/05/14 04:01:41;;;;;;;34.00;14.45;;;;;;;10.86;96.55;100330.53;5035046;28;20037;-47
2021/05/14 04:04:06;;;;;;;29.42;13.73;;;;;;;10.82;95.99;100330.22;5031782;28;20033;-46
2021/05/14 04:06:32;;;;;;;30.83;13.50;;;;;;;10.87;95.94;100346.34;5033831;28;20106;-46
2021/05/14 04:08:57;;;;;;;33.10;13.75;;;;;;;10.88;95.84;100339.91;5036223;28;20710;-45
2021/05/14 04:16:51;;;;;;;39.17;15.07;;;;;;;10.92;95.85;100334.81;5033916;28;20414;-46
2021/05/14 04:19:18;;;;;;;34.88;13.77;;;;;;;11.00;95.29;100337.03;5034393;28;20029;-46
2021/05/14 04:21:43;;;;;;;40.47;15.23;;;;;;;10.88;95.84;100341.78;5033047;28;20051;-46
2021/05/14 04:24:09;;;;;;;36.92;15.35;;;;;;;11.04;95.45;100343.47;5033760;28;20506;-46
2021/05/14 04:26:34;;;;;;;31.95;14.00;;;;;;;11.18;94.73;100333.91;5038297;28;20048;-46
2021/05/14 04:29:00;;;;;;;35.22;15.25;;;;;;;10.94;95.82;100342.59;5037196;28;20067;-46
2021/05/14 04:31:26;;;;;;;34.05;15.80;;;;;;;10.98;95.83;100352.56;5031369;28;20032;-47
2021/05/14 04:33:51;;;;;;;29.48;13.27;;;;;;;11.01;95.31;100344.00;5034174;28;20038;-45
2021/05/14 04:36:17;;;;;;;25.65;12.25;;;;;;;11.00;94.99;100347.75;5035977;28;20394;-46
2021/05/14 04:38:42;;;;;;;26.08;12.18;;;;;;;11.07;94.89;100337.59;5033141;28;20032;-48
2021/05/14 04:41:07;;;;;;;23.92;11.25;;;;;;;11.10;94.85;100338.94;5035228;28;20147;-47
2021/05/14 04:43:33;;;;;;;26.20;13.20;;;;;;;11.02;94.92;100347.50;5033758;28;20029;-46
2021/05/14 04:45:58;;;;;;;29.83;12.63;;;;;;;11.12;94.79;100342.16;5032266;28;20079;-45
2021/05/14 04:48:24;;;;;;;25.25;11.60;;;;;;;11.10;94.72;100347.78;5036712;28;20035;-46
2021/05/14 04:50:49;;;;;;;22.77;11.20;;;;;;;11.29;94.23;100339.28;5032556;28;20474;-46
2021/05/14 04:53:16;;;;;;;26.95;10.48;;;;;;;11.39;93.28;100347.38;5033947;28;20056;-45
2021/05/14 04:55:42;;;;;;;18.88;9.65;;;;;;;11.45;92.72;100343.63;5030453;28;20045;-46
2021/05/14 04:58:08;;;;;;;21.33;10.75;;;;;;;11.36;93.04;100348.72;5030282;28;20034;-47
2021/05/14 05:00:33;;;;;;;23.67;11.60;;;;;;;11.38;92.60;100341.22;5027405;28;20112;-46
2021/05/14 05:03:00;;;;;;;29.02;13.23;;;;;;;11.26;93.30;100345.97;5031768;28;20029;-46
2021/05/14 05:05:26;;;;;;;27.25;13.38;;;;;;;11.34;93.16;100350.84;5024513;28;20403;-46
2021/05/14 05:07:52;;;;;;;26.83;12.40;;;;;;;11.13;93.97;100346.44;5026982;28;20047;-46
2021/05/14 05:10:21;;;;;;;22.92;11.45;;;;;;;11.17;93.39;100344.88;5029306;28;20252;-46
2021/05/14 05:12:47;;;;;;;23.73;12.60;;;;;;;11.16;93.98;100344.09;5034979;28;20422;-46
2021/05/14 05:15:14;;;;;;;26.33;12.80;;;;;;;11.03;94.22;100357.94;5027533;28;20074;-46
2021/05/14 05:17:40;;;;;;;29.13;13.68;;;;;;;11.27;93.77;100354.84;5032973;28;20025;-46
2021/05/14 05:20:06;;;;;;;30.95;12.70;;;;;;;11.19;94.23;100351.59;5029771;28;20021;-46
2021/05/14 05:22:32;;;;;;;24.80;13.68;;;;;;;11.19;93.65;100356.97;5034888;28;20059;-46
2021/05/14 05:24:58;;;;;;;25.70;12.27;;;;;;;11.30;93.59;100354.31;5029922;28;20025;-45
2021/05/14 05:27:23;;;;;;;25.80;11.70;;;;;;;11.26;94.00;100354.03;5028682;28;20483;-48
2021/05/14 05:29:49;;;;;;;21.88;11.23;;;;;;;11.29;93.55;100361.53;5033028;28;20033;-46
2021/05/14 05:32:14;;;;;;;23.77;12.90;;;;;;;11.22;93.75;100360.19;5032793;28;20666;-46
2021/05/14 05:34:40;;;;;;;22.42;11.50;;;;;;;11.28;93.55;100359.94;5032635;28;20416;-46
2021/05/14 05:37:06;;;;;;;20.88;11.75;;;;;;;11.31;93.26;100358.59;5032781;28;20021;-46
2021/05/14 05:39:31;;;;;;;25.90;12.93;;;;;;;11.25;93.74;100360.47;5037912;28;20028;-46
2021/05/14 05:41:57;;;;;;;20.45;11.55;;;;;;;11.48;92.64;100361.88;5036253;28;20021;-48
2021/05/14 05:44:23;;;;;;;22.23;12.15;;;;;;;11.41;92.69;100366.69;5035730;28;20072;-46
2021/05/14 05:46:50;;;;;;;20.23;10.65;;;;;;;11.45;92.51;100362.41;5035224;28;20059;-48
2021/05/14 05:49:15;;;;;;;23.33;11.23;;;;;;;11.53;92.03;100369.97;5036604;28;20029;-46
2021/05/14 05:51:41;;;;;;;19.77;10.73;;;;;;;11.54;91.51;100368.91;5038710;28;20456;-47
2021/05/14 05:54:08;;;;;;;19.30;10.48;;;;;;;11.25;92.35;100360.47;5036416;28;20025;-49
2021/05/14 05:56:34;;;;;;;23.58;9.85;;;;;;;11.32;92.46;100374.47;5043516;28;20020;-46
2021/05/14 05:59:00;;;;;;;17.55;8.30;;;;;;;11.56;90.66;100377.50;5036383;28;20028;-48
2021/05/14 06:01:25;;;;;;;17.85;9.15;;;;;;;11.75;89.94;100377.81;5037993;28;20033;-46
2021/05/14 06:03:51;;;;;;;19.88;8.73;;;;;;;11.52;90.88;100379.09;5038017;28;20033;-45
2021/05/14 06:06:16;;;;;;;15.75;8.60;;;;;;;11.70;89.69;100381.31;5038431;28;20494;-48
2021/05/14 06:08:42;;;;;;;16.95;8.38;;;;;;;11.55;90.91;100386.63;5037522;28;20285;-46
2021/05/14 06:11:07;;;;;;;16.20;8.38;;;;;;;11.45;91.23;100378.50;5035511;28;20048;-47
2021/05/14 06:13:34;;;;;;;17.10;7.80;;;;;;;11.53;90.71;100378.03;5035765;28;20079;-46
2021/05/14 06:16:01;;;;;;;17.58;7.15;;;;;;;11.38;91.49;100380.63;5031993;28;20361;-48
2021/05/14 06:18:31;;;;;;;19.40;7.65;;;;;;;11.39;91.71;100388.41;5036440;28;20028;-46
2021/05/14 06:20:58;;;;;;;13.48;6.57;;;;;;;11.63;90.41;100380.72;5030760;28;20037;-48
2021/05/14 06:23:24;;;;;;;15.27;7.28;;;;;;;11.58;90.77;100386.09;5031430;28;20056;-46
2021/05/14 06:25:49;;;;;;;11.93;6.38;;;;;;;11.51;90.48;100385.53;5030364;28;20056;-46
2021/05/14 06:28:21;;;;;;;11.07;5.97;;;;;;;11.62;89.96;100387.16;5030697;28;20470;-46
2021/05/14 06:30:46;;;;;;;14.05;6.95;;;;;;;11.86;88.85;100379.50;5035424;28;20025;-46
2021/05/14 06:33:12;;;;;;;16.73;6.68;;;;;;;11.93;88.43;100389.97;5033416;28;20032;-46
2021/05/14 06:35:40;;;;;;;15.05;7.18;;;;;;;11.99;88.15;100391.56;5035228;28;20024;-46
2021/05/14 06:38:06;;;;;;;14.45;6.95;;;;;;;12.01;88.44;100398.28;5033649;28;20118;-45
2021/05/14 06:40:31;;;;;;;12.45;6.45;;;;;;;12.04;88.43;100392.41;5036087;28;20305;-47
2021/05/14 06:42:57;;;;;;;14.85;6.70;;;;;;;12.09;87.57;100389.72;5032816;28;20096;-47
2021/05/14 06:45:22;;;;;;;14.23;6.05;;;;;;;12.10;87.65;100396.72;5033432;28;20036;-47
2021/05/14 06:47:48;;;;;;;13.63;6.32;;;;;;;12.12;86.76;100391.06;5033893;28;20439;-46
2021/05/14 06:50:13;;;;;;;13.23;6.75;;;;;;;12.28;86.31;100392.69;5033635;28;20096;-47
2021/05/14 06:52:39;;;;;;;13.45;5.55;;;;;;;12.37;85.90;100401.81;5032740;28;20029;-48
2021/05/14 06:55:09;;;;;;;10.95;6.05;;;;;;;12.46;85.10;100398.63;5028179;28;20467;-46
2021/05/14 06:57:36;;;;;;;11.43;6.03;;;;;;;12.53;85.11;100401.84;5034330;28;20057;-48
2021/05/14 07:00:02;;;;;;;13.25;7.20;;;;;;;12.47;85.15;100402.91;5031521;28;20519;-46
2021/05/14 07:02:28;;;;;;;13.63;7.03;;;;;;;12.17;86.39;100407.19;5031976;28;20025;-47
2021/05/14 07:04:53;;;;;;;13.68;6.75;;;;;;;12.15;87.14;100406.66;5032985;28;20325;-46
2021/05/14 07:07:19;;;;;;;13.52;7.28;;;;;;;12.10;86.24;100412.03;5031969;28;20032;-46
2021/05/14 07:09:45;;;;;;;12.02;7.07;;;;;;;12.12;86.31;100414.44;5030455;28;20059;-46
2021/05/14 07:12:10;;;;;;;14.60;7.35;;;;;;;12.40;85.47;100420.13;5032366;28;20039;-46
2021/05/14 07:14:36;;;;;;;13.40;7.18;;;;;;;12.11;86.63;100421.69;5029097;28;20482;-47
2021/05/14 07:17:02;;;;;;;13.98;6.88;;;;;;;12.26;85.99;100419.03;5029767;28;20035;-46
2021/05/14 07:19:27;;;;;;;14.35;7.70;;;;;;;11.98;87.52;100428.38;5024108;28;20033;-46
2021/05/14 07:21:54;;;;;;;13.55;8.10;;;;;;;11.86;88.74;100427.00;5034278;28;20033;-47
2021/05/14 07:24:20;;;;;;;15.45;9.38;;;;;;;11.92;88.64;100428.63;5033577;28;20026;-46
2021/05/14 07:26:46;;;;;;;13.10;8.63;;;;;;;11.88;89.07;100430.22;5031956;28;20386;-47
2021/05/14 07:29:11;;;;;;;13.90;8.35;;;;;;;11.74;89.56;100422.63;5033325;28;20175;-46
2021/05/14 07:31:37;;;;;;;16.52;8.65;;;;;;;11.66;89.56;100425.81;5035752;28;20387;-46
2021/05/14 07:34:02;;;;;;;14.23;7.53;;;;;;;11.60;89.54;100431.44;5037723;28;20395;-46
2021/05/14 07:36:28;;;;;;;13.27;8.15;;;;;;;11.82;88.94;100420.53;5035206;28;20044;-48
2021/05/14 07:38:54;;;;;;;18.33;10.77;;;;;;;11.65;89.40;100428.75;5031304;28;20128;-46
2021/05/14 07:41:20;;;;;;;14.05;7.90;;;;;;;11.75;88.58;100432.28;5039851;28;20108;-46
2021/05/14 07:43:45;;;;;;;18.20;7.65;;;;;;;11.81;88.14;100433.16;5028664;28;20075;-46
2021/05/14 07:46:11;;;;;;;15.77;8.15;;;;;;;11.60;89.01;100442.16;5027291;28;20029;-46
2021/05/14 07:48:37;;;;;;;14.82;8.10;;;;;;;11.70;89.07;100440.34;5033883;28;20032;-45
2021/05/14 07:51:03;;;;;;;16.80;9.68;;;;;;;11.77;88.82;100438.22;5030724;28;20025;-46
2021/05/14 07:53:28;;;;;;;15.13;9.63;;;;;;;11.87;88.42;100442.03;5026861;28;20116;-46
2021/05/14 07:55:54;;;;;;;16.10;9.20;;;;;;;11.68;89.40;100450.53;5029298;28;20168;-48
2021/05/14 07:58:20;;;;;;;16.73;8.73;;;;;;;11.67;89.25;100454.28;5031549;28;20110;-46
2021/05/14 08:00:48;;;;;;;15.55;7.53;;;;;;;11.76;89.25;100447.34;5023677;28;20029;-47
2021/05/14 08:03:15;;;;;;;14.30;7.30;;;;;;;11.74;88.82;100444.09;5028784;28;21015;-47
2021/05/14 08:05:41;;;;;;;12.02;6.72;;;;;;;11.61;89.32;100452.63;5026726;28;20142;-46
2021/05/14 08:08:15;;;;;;;15.13;7.28;;;;;;;11.65;88.38;100453.72;5025365;28;20032;-46
2021/05/14 08:10:41;;;;;;;15.38;7.22;;;;;;;12.01;87.10;100452.00;5031102;28;20068;-46
2021/05/14 08:13:06;;;;;;;14.30;7.90;;;;;;;12.14;86.48;100450.69;5028861;28;20344;-45
2021/05/14 08:15:32;;;;;;;14.50;7.38;;;;;;;12.24;85.68;100447.22;5028626;28;20028;-46
2021/05/14 08:17:58;;;;;;;13.13;7.63;;;;;;;12.10;85.60;100453.09;5028052;28;20450;-46
2021/05/14 08:20:24;;;;;;;11.70;6.20;;;;;;;12.21;85.40;100459.31;5034628;28;20033;-46
2021/05/14 08:22:51;;;;;;;12.40;6.72;;;;;;;12.35;85.00;100452.34;5025741;28;20486;-46
2021/05/14 08:25:17;;;;;;;14.35;7.57;;;;;;;12.10;85.61;100455.00;5024529;28;20025;-47
2021/05/14 08:27:42;;;;;;;11.95;7.45;;;;;;;11.90;86.66;100452.25;5031090;28;20247;-46
2021/05/14 08:30:10;;;;;;;15.02;6.28;;;;;;;11.94;86.74;100451.44;5027626;28;21025;-46
2021/05/14 08:32:36;;;;;;;11.32;6.50;;;;;;;11.80;87.83;100448.44;5029702;28;20028;-47
2021/05/14 08:35:02;;;;;;;12.10;6.88;;;;;;;11.51;88.75;100455.28;5032796;28;20091;-46
2021/05/14 08:37:27;;;;;;;11.45;6.60;;;;;;;11.63;88.25;100457.75;5027051;28;20032;-47
2021/05/14 08:39:53;;;;;;;10.30;5.85;;;;;;;11.90;87.20;100452.25;5029395;28;20033;-46
2021/05/14 08:42:18;;;;;;;11.88;6.35;;;;;;;12.07;86.67;100448.28;5029955;28;20020;-46
2021/05/14 08:44:44;;;;;;;10.30;7.30;;;;;;;12.09;86.47;100453.38;5022748;28;20456;-47
2021/05/14 08:47:11;;;;;;;11.50;7.30;;;;;;;11.99;87.83;100456.03;5031650;28;20467;-47
2021/05/14 08:49:38;;;;;;;10.35;7.28;;;;;;;11.86;88.67;100451.16;5025466;28;20021;-46
2021/05/14 08:52:07;;;;;;;13.63;6.78;;;;;;;11.73;90.01;100458.59;5028617;28;20195;-45
2021/05/14 08:54:35;;;;;;;11.63;7.20;;;;;;;11.85;89.58;100457.56;5022401;28;20021;-46
2021/05/14 08:57:00;;;;;;;12.43;6.82;;;;;;;11.84;90.56;100461.34;5022617;28;20044;-46
2021/05/14 08:59:26;;;;;;;10.88;6.18;;;;;;;11.68;91.15;100460.47;5026053;28;20051;-46
2021/05/14 09:01:51;;;;;;;10.93;6.22;;;;;;;11.51;90.95;100466.03;5025865;28;20029;-46
2021/05/14 09:04:19;;;;;;;10.65;5.95;;;;;;;11.56;91.57;100474.09;5024034;28;20033;-45
2021/05/14 09:06:46;;;;;;;10.85;6.55;;;;;;;11.47;91.09;100479.13;5026011;28;20033;-46
2021/05/14 09:09:13;;;;;;;10.38;6.85;;;;;;;11.21;91.81;100472.00;5029715;28;20037;-46
2021/05/14 09:11:43;;;;;;;9.65;6.45;;;;;;;11.28;91.99;100483.31;5025980;28;20509;-46
2021/05/14 09:14:32;;;;;;;10.45;6.30;;;;;;;11.50;91.12;100477.81;5026930;28;20442;-46
2021/05/14 09:17:08;;;;;;;8.10;5.63;;;;;;;11.29;90.80;100478.75;5023029;28;20032;-48
2021/05/14 09:19:36;;;;;;;9.07;5.85;;;;;;;11.28;91.40;100474.44;5026541;28;20041;-45
2021/05/14 09:22:24;;;;;;;11.20;5.82;;;;;;;11.23;91.29;100477.91;5023847;28;20033;-45
2021/05/14 09:24:57;;;;;;;10.77;6.18;;;;;;;11.15;92.31;100484.59;5024763;28;20029;-46
2021/05/14 09:27:30;;;;;;;9.75;5.80;;;;;;;11.33;91.92;100486.03;5024797;28;20017;-46
2021/05/14 09:29:58;;;;;;;9.77;5.53;;;;;;;11.46;91.12;100490.13;5027455;28;20021;-46
2021/05/14 09:32:31;;;;;;;10.93;6.15;;;;;;;11.42;91.08;100489.03;5031051;28;20519;-46
2021/05/14 09:34:58;;;;;;;13.40;7.20;;;;;;;11.36;90.99;100485.50;5026719;28;20126;-48
2021/05/14 09:37:26;;;;;;;13.50;7.28;;;;;;;11.28;91.90;100499.41;5027177;28;20072;-46
2021/05/14 09:40:20;;;;;;;12.15;7.03;;;;;;;11.46;90.83;100490.13;5029435;28;20105;-46
2021/05/14 09:42:49;;;;;;;14.55;7.05;;;;;;;11.44;91.22;100493.06;5026481;28;20021;-46
2021/05/14 09:45:20;;;;;;;12.82;6.78;;;;;;;11.52;90.77;100489.09;5025382;28;20029;-45
2021/05/14 09:47:58;;;;;;;10.48;6.60;;;;;;;11.51;91.76;100492.84;5024617;28;20018;-47
2021/05/14 09:50:37;;;;;;;12.27;7.82;;;;;;;11.34;92.15;100497.56;5031211;28;20200;-46
2021/05/14 09:53:08;;;;;;;16.05;7.93;;;;;;;11.30;93.21;100499.13;5025917;28;20047;-46
2021/05/14 09:55:35;;;;;;;12.15;7.68;;;;;;;11.27;92.54;100505.03;5027061;28;20037;-46
2021/05/14 09:58:08;;;;;;;10.45;7.28;;;;;;;11.17;92.66;100503.09;5026246;28;20397;-46
2021/05/14 10:00:34;;;;;;;11.25;6.90;;;;;;;11.11;92.70;100499.53;5028596;28;20116;-47
2021/05/14 10:02:59;;;;;;;9.93;6.50;;;;;;;11.39;91.86;100500.28;5024262;28;20030;-46
2021/05/14 10:05:25;;;;;;;10.38;7.30;;;;;;;11.63;91.06;100500.66;5026589;28;20028;-48
2021/05/14 10:07:52;;;;;;;8.80;5.25;;;;;;;11.64;90.93;100508.47;5025567;28;20024;-46
2021/05/14 10:10:18;;;;;;;6.18;3.92;;;;;;;11.74;89.61;100503.16;5026804;28;20604;-47
2021/05/14 10:12:49;;;;;;;5.93;3.70;;;;;;;11.85;89.42;100505.91;5027606;28;20415;-47
2021/05/14 10:15:16;;;;;;;7.90;4.00;;;;;;;11.60;89.87;100507.38;5027745;28;20040;-46
2021/05/14 10:17:47;;;;;;;6.57;3.88;;;;;;;11.42;90.23;100510.47;5026171;28;20092;-46
2021/05/14 10:20:18;;;;;;;6.38;4.13;;;;;;;11.60;89.92;100517.28;5026249;28;20056;-48
2021/05/14 10:22:45;;;;;;;7.30;4.20;;;;;;;11.42;91.24;100521.22;5027878;28;20025;-46
2021/05/14 10:25:14;;;;;;;6.32;3.83;;;;;;;11.45;91.58;100520.69;5029608;28;20021;-46
2021/05/14 10:27:42;;;;;;;8.20;3.80;;;;;;;11.57;90.09;100524.00;5029069;28;20021;-47
2021/05/14 10:30:09;;;;;;;5.85;3.17;;;;;;;11.54;90.20;100524.53;5032235;28;20029;-46
2021/05/14 10:32:44;;;;;;;5.20;3.47;;;;;;;11.73;88.86;100514.97;5031564;28;20120;-45
2021/05/14 10:35:15;;;;;;;6.72;3.50;;;;;;;11.60;88.51;100523.47;5030731;28;20030;-45
2021/05/14 10:37:47;;;;;;;5.45;3.58;;;;;;;11.73;88.07;100516.84;5032075;28;20029;-47
2021/05/14 10:40:38;;;;;;;5.15;3.15;;;;;;;11.66;88.23;100524.28;5034953;28;20029;-46
2021/05/14 10:43:08;;;;;;;5.72;3.10;;;;;;;11.56;88.41;100522.38;5029615;28;20029;-45
2021/05/14 10:45:38;;;;;;;8.15;3.92;;;;;;;11.26;88.91;100532.91;5030760;28;20225;-46
2021/05/14 10:48:16;;;;;;;6.05;3.88;;;;;;;11.13;89.56;100537.66;5031909;28;20029;-46
2021/05/14 10:50:43;;;;;;;7.55;4.35;;;;;;;11.00;90.31;100548.00;5030268;28;20036;-46
2021/05/14 10:53:20;;;;;;;7.47;4.28;;;;;;;10.74;91.70;100552.31;5030032;28;20414;-46
2021/05/14 10:55:47;;;;;;;8.00;4.50;;;;;;;10.78;91.68;100543.53;5033374;28;20036;-48
2021/05/14 10:58:48;;;;;;;8.30;4.53;;;;;;;10.74;91.13;100549.63;5035874;28;20036;-46
2021/05/14 11:01:29;;;;;;;7.35;4.72;;;;;;;10.61;90.91;100550.88;5027387;28;20603;-45
2021/05/14 11:03:55;;;;;;;6.72;4.57;;;;;;;10.58;91.76;100546.78;5035292;28;20116;-45
2021/05/14 11:06:21;;;;;;;9.30;4.55;;;;;;;10.56;91.94;100551.59;5031860;28;20166;-46
2021/05/14 11:09:09;;;;;;;7.43;3.92;;;;;;;10.69;90.54;100550.41;5030266;28;20482;-45
2021/05/14 11:11:52;;;;;;;6.45;4.57;;;;;;;10.63;90.16;100547.94;5033881;28;20063;-46
2021/05/14 11:14:21;;;;;;;12.40;5.53;;;;;;;10.72;90.14;100555.25;5032930;28;20028;-45
2021/05/14 11:16:50;;;;;;;6.13;3.55;;;;;;;10.77;89.56;100549.13;5031488;28;20486;-45
2021/05/14 11:19:31;;;;;;;6.25;3.75;;;;;;;10.77;89.97;100547.28;5030030;28;20124;-46